Time;durP1;ratioP1;P1;durP2;ratioP2;P2;SDS_P1;SDS_P2;PMS_P1;PMS_P2;Temp;Humidity;BMP_temperature;BMP_pressure;BME280_temperature;BME280_humidity;BME280_pressure;Samples;Min_cycle;Max_cycle;Signal;HPM_P1;HPM_P2
2022/01/05 00:01:20;;;;;;;17.67;1.77;;;2.40;94.90;;;;;;4947180;28;20047;-67
2022/01/05 00:03:45;;;;;;;18.02;1.92;;;2.40;94.70;;;;;;4950306;29;20043;-67
2022/01/05 00:06:11;;;;;;;9.05;1.15;;;2.30;95.00;;;;;;4946696;29;20055;-67
2022/01/05 00:08:37;;;;;;;13.27;1.65;;;2.30;95.30;;;;;;4946593;29;20078;-67
2022/01/05 00:11:03;;;;;;;10.27;1.65;;;2.30;95.20;;;;;;4934328;29;20401;-67
2022/01/05 00:13:29;;;;;;;7.38;1.17;;;2.20;95.70;;;;;;4948510;28;20055;-67
2022/01/05 00:15:55;;;;;;;11.38;1.30;;;2.20;95.70;;;;;;4950846;29;20753;-67
2022/01/05 00:18:20;;;;;;;11.93;1.63;;;2.10;95.90;;;;;;4956614;28;20039;-67
2022/01/05 00:20:46;;;;;;;11.02;1.42;;;2.10;96.00;;;;;;4933267;29;20051;-67
2022/01/05 00:23:12;;;;;;;9.52;1.40;;;2.10;96.20;;;;;;4949543;29;20039;-67
2022/01/05 00:25:38;;;;;;;8.80;1.20;;;2.00;96.50;;;;;;4950602;29;20062;-66
2022/01/05 00:28:04;;;;;;;4.18;1.00;;;2.00;96.80;;;;;;4932364;29;20044;-67
2022/01/05 00:30:30;;;;;;;3.80;0.88;;;2.10;96.90;;;;;;4948982;29;20043;-67
2022/01/05 00:32:56;;;;;;;3.45;0.95;;;2.10;96.70;;;;;;4950090;29;20861;-67
2022/01/05 00:35:21;;;;;;;6.53;0.65;;;2.20;96.70;;;;;;4931959;29;20134;-66
2022/01/05 00:37:47;;;;;;;6.95;1.30;;;2.20;96.30;;;;;;4932937;29;20051;-67
2022/01/05 00:40:13;;;;;;;3.72;1.00;;;2.30;96.30;;;;;;4948402;29;20067;-67
2022/01/05 00:42:39;;;;;;;11.45;1.40;;;2.20;96.30;;;;;;4950786;29;20083;-67
2022/01/05 00:45:06;;;;;;;6.50;1.10;;;2.20;96.30;;;;;;4949357;28;20051;-67
2022/01/05 00:47:31;;;;;;;11.05;2.03;;;2.20;96.40;;;;;;4931975;29;20107;-67
2022/01/05 00:49:57;;;;;;;7.78;1.20;;;2.20;96.40;;;;;;4949850;29;20051;-67
2022/01/05 00:52:23;;;;;;;15.50;1.70;;;2.10;96.40;;;;;;4930904;29;20367;-67
2022/01/05 00:54:49;;;;;;;15.27;2.25;;;2.10;96.60;;;;;;4949988;29;20066;-67
2022/01/05 00:57:15;;;;;;;12.73;1.48;;;2.10;96.60;;;;;;4930981;29;20057;-68
2022/01/05 00:59:41;;;;;;;3.70;0.75;;;2.10;96.80;;;;;;4933601;29;20529;-67
2022/01/05 01:02:07;;;;;;;12.20;1.70;;;2.00;96.60;;;;;;4917488;28;20449;-67
2022/01/05 01:04:33;;;;;;;8.90;1.30;;;2.10;96.50;;;;;;4931661;29;20458;-67
2022/01/05 01:06:59;;;;;;;6.03;0.90;;;2.10;96.40;;;;;;4964681;28;20055;-67
2022/01/05 01:09:25;;;;;;;19.80;2.70;;;2.10;96.50;;;;;;4936658;29;20075;-67
2022/01/05 01:11:51;;;;;;;10.20;1.50;;;2.10;96.50;;;;;;4949544;28;20078;-67
2022/01/05 01:14:17;;;;;;;7.22;1.60;;;2.10;96.50;;;;;;4941014;29;20044;-67
2022/01/05 01:16:42;;;;;;;10.05;1.50;;;2.10;96.60;;;;;;4948806;29;20098;-67
2022/01/05 01:19:08;;;;;;;0.80;0.17;;;2.10;97.00;;;;;;4946130;29;20684;-67
2022/01/05 01:21:34;;;;;;;8.48;0.93;;;2.10;96.90;;;;;;4948326;29;20504;-68
2022/01/05 01:24:00;;;;;;;11.00;1.50;;;2.20;96.40;;;;;;4938021;29;20090;-67
2022/01/05 01:26:28;;;;;;;2.67;1.30;;;2.40;95.80;;;;;;4948573;29;20105;-67
2022/01/05 01:28:56;;;;;;;9.73;2.05;;;2.60;95.20;;;;;;4948411;29;20090;-67
2022/01/05 01:31:22;;;;;;;2.60;0.73;;;2.70;94.60;;;;;;4947610;28;20108;-67
2022/01/05 01:33:48;;;;;;;11.93;1.05;;;2.70;94.20;;;;;;4924844;29;20047;-67
2022/01/05 01:36:14;;;;;;;7.45;1.67;;;2.60;94.20;;;;;;4946073;29;20048;-67
2022/01/05 01:38:42;;;;;;;11.70;1.52;;;2.60;94.40;;;;;;4948399;29;20521;-67
2022/01/05 01:41:08;;;;;;;12.43;2.03;;;2.50;94.70;;;;;;4966570;28;20058;-68
2022/01/05 01:43:34;;;;;;;9.23;1.95;;;2.40;95.20;;;;;;4959755;28;20667;-67
2022/01/05 01:46:00;;;;;;;11.68;1.38;;;2.20;95.20;;;;;;4960035;28;20503;-67
2022/01/05 01:48:26;;;;;;;6.68;1.27;;;2.20;95.60;;;;;;4947846;28;20090;-67
2022/01/05 01:50:52;;;;;;;15.75;2.20;;;2.20;95.50;;;;;;4962097;28;20097;-67
2022/01/05 01:53:18;;;;;;;10.88;1.42;;;2.20;95.40;;;;;;4947930;28;20740;-67
2022/01/05 01:55:46;;;;;;;13.48;2.20;;;2.20;95.50;;;;;;4932494;29;20054;-67
2022/01/05 01:58:13;;;;;;;9.63;1.73;;;2.20;95.40;;;;;;4955799;28;20689;-67
2022/01/05 02:00:39;;;;;;;6.80;1.17;;;2.30;95.50;;;;;;4966636;28;20047;-67
2022/01/05 02:03:04;;;;;;;8.40;0.77;;;2.20;95.40;;;;;;4958861;28;20173;-67
2022/01/05 02:05:30;;;;;;;15.40;2.30;;;2.30;95.10;;;;;;4952587;28;20134;-67
2022/01/05 02:07:56;;;;;;;8.95;1.65;;;2.40;94.80;;;;;;4961301;28;20055;-67
2022/01/05 02:10:22;;;;;;;14.90;2.67;;;2.40;94.50;;;;;;4958796;28;20715;-67
2022/01/05 02:12:50;;;;;;;7.10;1.15;;;2.40;94.50;;;;;;4968291;28;20137;-67
2022/01/05 02:15:16;;;;;;;19.15;1.83;;;2.50;94.40;;;;;;4957014;28;20508;-67
2022/01/05 02:18:07;;;;;;;12.95;1.85;;;2.50;93.90;;;;;;4963239;28;20062;-67
2022/01/05 02:20:33;;;;;;;5.28;0.82;;;2.60;94.00;;;;;;4950820;28;20058;-67
2022/01/05 02:22:59;;;;;;;9.88;1.80;;;2.60;93.50;;;;;;4965794;28;20588;-67
2022/01/05 02:25:25;;;;;;;8.23;1.25;;;2.60;93.30;;;;;;4962567;28;20051;-67
2022/01/05 02:27:53;;;;;;;8.68;1.63;;;2.70;92.90;;;;;;4947321;28;20058;-67
2022/01/05 02:30:26;;;;;;;4.90;1.27;;;2.80;92.80;;;;;;4948072;28;20058;-67
2022/01/05 02:32:51;;;;;;;15.88;1.70;;;2.80;92.30;;;;;;4950421;28;20502;-67
2022/01/05 02:35:17;;;;;;;15.45;1.85;;;2.90;92.00;;;;;;4966824;28;20054;-67
2022/01/05 02:37:45;;;;;;;18.73;2.10;;;2.90;91.90;;;;;;4962685;28;20046;-67
2022/01/05 02:40:14;;;;;;;8.40;0.98;;;2.90;91.80;;;;;;4964909;28;20391;-67
2022/01/05 02:42:41;;;;;;;12.18;2.22;;;2.90;91.90;;;;;;4944496;29;20047;-67
2022/01/05 02:45:08;;;;;;;7.93;1.25;;;2.90;91.90;;;;;;4946057;28;20449;-67
2022/01/05 02:47:33;;;;;;;17.38;2.33;;;2.90;91.80;;;;;;4954560;28;20272;-67
2022/01/05 02:50:00;;;;;;;13.63;2.10;;;2.90;92.00;;;;;;4931175;28;20047;-68
2022/01/05 02:52:26;;;;;;;12.48;2.20;;;2.90;92.40;;;;;;4965885;28;20098;-67
2022/01/05 02:54:52;;;;;;;11.30;1.27;;;2.80;92.30;;;;;;4965770;28;20039;-67
2022/01/05 02:57:18;;;;;;;4.25;0.88;;;2.90;92.40;;;;;;4958550;28;20892;-67
2022/01/05 02:59:44;;;;;;;3.40;0.90;;;2.90;92.30;;;;;;4947358;29;20039;-67
2022/01/05 03:02:10;;;;;;;13.43;1.60;;;3.00;92.50;;;;;;4957683;28;20497;-67
2022/01/05 03:04:36;;;;;;;4.47;1.08;;;3.00;92.50;;;;;;4966529;28;20979;-67
2022/01/05 03:07:01;;;;;;;15.32;1.80;;;3.00;92.50;;;;;;4947502;28;20465;-67
2022/01/05 03:09:27;;;;;;;8.55;2.10;;;3.00;92.30;;;;;;4951555;28;20047;-67
2022/01/05 03:11:53;;;;;;;8.10;1.40;;;3.00;92.30;;;;;;4956354;28;20042;-67
2022/01/05 03:14:20;;;;;;;13.93;1.95;;;3.00;92.20;;;;;;4948294;28;20046;-67
2022/01/05 03:16:45;;;;;;;15.95;2.22;;;3.00;92.00;;;;;;4966274;28;20046;-67
2022/01/05 03:19:11;;;;;;;18.33;2.38;;;3.10;92.20;;;;;;4951888;28;20054;-67
2022/01/05 03:21:37;;;;;;;7.93;1.42;;;3.10;92.20;;;;;;4966082;28;20050;-67
2022/01/05 03:24:03;;;;;;;12.77;1.48;;;3.10;92.30;;;;;;4963094;28;20138;-67
2022/01/05 03:26:29;;;;;;;7.65;1.23;;;3.20;92.70;;;;;;4966030;28;20054;-67
2022/01/05 03:28:54;;;;;;;12.52;1.48;;;3.30;92.30;;;;;;4959607;28;20127;-67
2022/01/05 03:31:20;;;;;;;3.95;0.82;;;3.40;92.10;;;;;;4932518;28;20070;-67
2022/01/05 03:33:46;;;;;;;5.28;3.30;;;3.50;92.00;;;;;;4952047;28;20130;-67
2022/01/05 03:36:12;;;;;;;9.45;2.30;;;3.50;92.10;;;;;;4943955;28;20114;-67
2022/01/05 03:38:37;;;;;;;4.43;1.05;;;3.60;92.20;;;;;;4929933;29;20051;-67
2022/01/05 03:41:03;;;;;;;10.38;1.30;;;3.70;92.30;;;;;;4944074;29;20549;-67
2022/01/05 03:43:29;;;;;;;4.95;1.15;;;3.70;92.30;;;;;;4946499;29;20109;-67
2022/01/05 03:45:55;;;;;;;6.88;1.48;;;3.60;92.70;;;;;;4941025;29;20054;-67
2022/01/05 03:48:21;;;;;;;13.32;2.45;;;3.70;92.90;;;;;;4930120;29;20135;-67
2022/01/05 03:50:47;;;;;;;4.03;0.52;;;3.60;93.00;;;;;;4947026;28;20490;-67
2022/01/05 03:53:14;;;;;;;4.45;1.40;;;3.50;93.50;;;;;;4960796;28;20410;-67
2022/01/05 03:55:43;;;;;;;5.15;0.85;;;3.50;93.80;;;;;;4952539;28;20047;-67
2022/01/05 03:58:09;;;;;;;9.32;1.38;;;3.50;93.80;;;;;;4944044;29;20118;-67
2022/01/05 04:00:39;;;;;;;4.82;1.23;;;3.60;93.80;;;;;;4946224;29;20043;-67
2022/01/05 04:03:05;;;;;;;2.45;0.82;;;3.60;93.60;;;;;;4945840;28;20498;-67
2022/01/05 04:05:31;;;;;;;4.70;0.80;;;3.60;93.80;;;;;;4945388;28;20138;-67
2022/01/05 04:07:57;;;;;;;1.88;0.45;;;3.50;94.00;;;;;;4936033;29;20061;-67
2022/01/05 04:10:24;;;;;;;3.10;0.80;;;3.50;94.10;;;;;;4944034;28;20139;-67
2022/01/05 04:12:49;;;;;;;4.43;1.40;;;3.40;94.40;;;;;;4947561;29;20046;-67
2022/01/05 04:15:16;;;;;;;22.95;0.85;;;3.40;94.50;;;;;;4935656;29;20482;-67
2022/01/05 04:17:42;;;;;;;8.93;1.10;;;3.50;94.60;;;;;;4946194;29;20051;-67
2022/01/05 04:20:09;;;;;;;7.88;1.05;;;3.40;94.60;;;;;;4939645;28;20078;-67
2022/01/05 04:22:35;;;;;;;5.25;1.05;;;3.40;94.70;;;;;;4932902;29;20126;-68
2022/01/05 04:25:00;;;;;;;0.75;0.35;;;3.40;94.60;;;;;;4932126;29;20138;-67
2022/01/05 04:27:27;;;;;;;2.75;0.93;;;3.50;94.60;;;;;;4950224;28;20621;-67
2022/01/05 04:29:52;;;;;;;11.20;1.85;;;3.50;94.60;;;;;;4950486;28;20055;-67
2022/01/05 04:32:18;;;;;;;5.35;1.38;;;3.40;94.70;;;;;;4946930;28;20094;-67
2022/01/05 04:34:44;;;;;;;6.60;1.50;;;3.50;94.80;;;;;;4950233;29;20055;-66
2022/01/05 04:37:10;;;;;;;8.18;1.10;;;3.50;94.80;;;;;;4946660;28;20058;-67
2022/01/05 04:39:36;;;;;;;6.70;1.50;;;3.50;94.80;;;;;;4956616;28;20050;-67
2022/01/05 04:42:02;;;;;;;4.97;0.65;;;3.50;95.00;;;;;;4946492;29;20055;-67
2022/01/05 04:44:28;;;;;;;8.55;1.33;;;3.50;95.00;;;;;;4953045;28;20055;-67
2022/01/05 04:46:54;;;;;;;3.78;1.17;;;3.50;95.30;;;;;;4948786;28;20467;-67
2022/01/05 04:49:20;;;;;;;4.65;1.02;;;3.40;95.10;;;;;;4958266;28;20568;-67
2022/01/05 04:51:46;;;;;;;3.47;0.73;;;3.50;95.20;;;;;;4969661;28;20077;-67
2022/01/05 04:54:12;;;;;;;1.13;0.57;;;3.50;95.30;;;;;;4957234;28;20051;-67
2022/01/05 04:56:38;;;;;;;9.30;1.17;;;3.60;95.40;;;;;;4968129;28;20109;-67
2022/01/05 04:59:04;;;;;;;7.53;0.68;;;3.50;95.40;;;;;;4966605;28;20053;-67
2022/01/05 05:01:30;;;;;;;2.20;0.90;;;3.50;95.50;;;;;;4963010;28;20387;-67
2022/01/05 05:03:56;;;;;;;11.27;1.40;;;3.50;95.50;;;;;;4959509;28;20057;-67
2022/01/05 05:06:22;;;;;;;4.70;0.85;;;3.40;95.70;;;;;;4963540;28;20046;-67
2022/01/05 05:08:49;;;;;;;8.13;1.55;;;3.50;95.70;;;;;;4969335;28;20043;-66
2022/01/05 05:11:15;;;;;;;7.68;0.98;;;3.50;95.60;;;;;;4967106;28;20054;-66
2022/01/05 05:13:41;;;;;;;2.40;0.47;;;3.50;95.50;;;;;;4953495;28;20039;-67
2022/01/05 05:16:07;;;;;;;5.63;0.63;;;3.50;95.60;;;;;;4963656;28;20055;-66
2022/01/05 05:18:33;;;;;;;6.78;0.93;;;3.50;95.70;;;;;;4967687;28;20344;-67
2022/01/05 05:20:59;;;;;;;3.63;0.70;;;3.50;95.80;;;;;;4967564;28;20145;-67
2022/01/05 05:23:25;;;;;;;10.77;1.77;;;3.60;96.00;;;;;;4950160;28;20050;-67
2022/01/05 05:25:50;;;;;;;8.15;1.27;;;3.60;95.90;;;;;;4932651;29;20196;-67
2022/01/05 05:28:16;;;;;;;24.52;2.88;;;3.70;95.90;;;;;;4949674;28;20577;-67
2022/01/05 05:30:42;;;;;;;10.35;1.02;;;3.70;95.70;;;;;;4969092;28;20437;-67
2022/01/05 05:33:08;;;;;;;10.25;1.73;;;3.80;95.70;;;;;;4947134;28;20042;-67
2022/01/05 05:35:34;;;;;;;6.32;0.90;;;3.80;95.70;;;;;;4963722;28;20129;-67
2022/01/05 05:38:00;;;;;;;21.38;1.80;;;3.80;95.50;;;;;;4934226;28;20051;-67
2022/01/05 05:40:27;;;;;;;10.70;1.90;;;3.80;95.70;;;;;;4949125;29;20049;-67
2022/01/05 05:42:52;;;;;;;5.53;1.38;;;3.80;95.70;;;;;;4931179;29;20510;-67
2022/01/05 05:45:18;;;;;;;1.20;0.45;;;3.90;95.70;;;;;;4943915;29;20954;-67
2022/01/05 05:47:44;;;;;;;5.82;0.82;;;3.90;95.70;;;;;;4940128;29;20126;-67
2022/01/05 05:50:10;;;;;;;8.93;1.13;;;4.00;95.90;;;;;;4947643;28;20122;-67
2022/01/05 05:52:36;;;;;;;6.25;1.13;;;4.00;96.00;;;;;;4949017;29;20383;-67
2022/01/05 05:55:03;;;;;;;9.30;1.27;;;4.00;96.10;;;;;;4946055;29;20043;-67
2022/01/05 05:57:29;;;;;;;8.00;1.70;;;4.10;96.30;;;;;;4935937;29;20047;-67
2022/01/05 05:59:54;;;;;;;7.22;1.70;;;4.10;96.70;;;;;;4946509;29;20058;-67
2022/01/05 06:02:20;;;;;;;10.25;1.70;;;4.00;97.30;;;;;;4947704;28;20138;-66
2022/01/05 06:04:46;;;;;;;8.10;1.73;;;4.00;97.70;;;;;;4939554;29;20146;-66
2022/01/05 06:07:12;;;;;;;7.20;1.20;;;4.00;98.00;;;;;;4945873;28;20042;-67
2022/01/05 06:09:37;;;;;;;5.80;1.00;;;4.00;98.10;;;;;;4939956;29;20482;-67
2022/01/05 06:12:03;;;;;;;3.25;0.90;;;4.00;98.10;;;;;;4945510;29;20399;-67
2022/01/05 06:14:29;;;;;;;2.22;0.70;;;3.90;98.30;;;;;;4947088;29;20086;-67
2022/01/05 06:16:55;;;;;;;16.40;1.70;;;4.00;97.90;;;;;;4942100;29;20087;-67
2022/01/05 06:19:21;;;;;;;3.08;1.13;;;3.90;97.90;;;;;;4931237;29;20051;-67
2022/01/05 06:21:47;;;;;;;3.42;0.68;;;3.80;97.80;;;;;;4948048;29;20039;-66
2022/01/05 06:24:13;;;;;;;4.45;0.85;;;3.80;98.10;;;;;;4946530;29;20047;-67
2022/01/05 06:26:39;;;;;;;7.35;1.15;;;3.80;98.30;;;;;;4948102;29;20077;-67
2022/01/05 06:29:05;;;;;;;1.77;0.40;;;3.70;98.60;;;;;;4922302;29;20536;-67
2022/01/05 06:31:31;;;;;;;3.40;1.02;;;3.70;98.90;;;;;;4944821;29;20055;-67
2022/01/05 06:33:56;;;;;;;8.68;1.42;;;3.70;99.10;;;;;;4946817;29;20047;-67
2022/01/05 06:36:22;;;;;;;9.70;1.13;;;3.70;99.50;;;;;;4948437;29;20055;-67
2022/01/05 06:38:48;;;;;;;4.90;1.02;;;3.80;99.60;;;;;;4921725;29;20101;-66
2022/01/05 06:41:14;;;;;;;5.88;0.90;;;3.80;99.50;;;;;;4967038;28;20530;-66
2022/01/05 06:43:39;;;;;;;4.22;0.73;;;3.90;99.50;;;;;;4959489;28;20047;-66
2022/01/05 06:46:05;;;;;;;9.75;1.17;;;3.90;99.60;;;;;;4957555;28;20121;-66
2022/01/05 06:48:31;;;;;;;3.53;0.73;;;3.90;99.60;;;;;;4943410;28;20042;-66
2022/01/05 06:50:56;;;;;;;4.82;1.38;;;3.90;99.70;;;;;;4965922;28;20110;-67
2022/01/05 06:53:22;;;;;;;5.85;0.95;;;3.90;99.60;;;;;;4940384;28;20047;-66
2022/01/05 06:55:48;;;;;;;6.13;0.85;;;4.00;99.50;;;;;;4956789;28;20502;-66
2022/01/05 06:58:13;;;;;;;5.68;1.83;;;4.00;99.40;;;;;;4929825;28;20051;-66
2022/01/05 07:00:39;;;;;;;16.50;1.75;;;4.00;99.40;;;;;;4959352;28;20051;-67
2022/01/05 07:03:05;;;;;;;17.35;2.00;;;4.00;99.20;;;;;;4941344;28;20057;-66
2022/01/05 07:05:31;;;;;;;1.80;0.40;;;3.90;99.40;;;;;;4965886;28;20057;-66
2022/01/05 07:07:58;;;;;;;18.65;2.05;;;3.90;99.60;;;;;;4965681;28;20500;-66
2022/01/05 07:10:24;;;;;;;12.85;1.63;;;3.90;99.90;;;;;;4948049;28;20036;-66
2022/01/05 07:12:49;;;;;;;1.27;0.57;;;3.90;99.90;;;;;;4963608;28;20161;-66
2022/01/05 07:15:16;;;;;;;3.85;0.52;;;4.00;99.90;;;;;;4966539;28;20054;-66
2022/01/05 07:17:41;;;;;;;7.13;1.00;;;4.10;99.90;;;;;;4963796;28;20050;-66
2022/01/05 07:20:09;;;;;;;15.75;1.98;;;4.00;99.80;;;;;;4961368;28;20047;-66
2022/01/05 07:22:35;;;;;;;2.88;0.55;;;4.10;99.90;;;;;;4966421;28;20111;-66
2022/01/05 07:25:01;;;;;;;9.02;1.10;;;4.10;99.90;;;;;;4932201;28;20042;-66
2022/01/05 07:27:26;;;;;;;12.52;1.95;;;4.20;99.90;;;;;;4965319;28;20053;-67
2022/01/05 07:29:52;;;;;;;5.50;1.02;;;4.20;99.90;;;;;;4941619;29;20057;-66
2022/01/05 07:32:18;;;;;;;4.28;0.93;;;4.30;99.90;;;;;;4940720;28;20455;-66
2022/01/05 07:34:44;;;;;;;12.73;1.55;;;4.30;99.90;;;;;;4963613;28;20042;-67
2022/01/05 07:37:09;;;;;;;8.50;1.30;;;4.40;99.90;;;;;;4949498;28;20059;-66
2022/01/05 07:39:37;;;;;;;6.10;1.80;;;4.40;99.90;;;;;;4964335;28;20057;-66
2022/01/05 07:42:03;;;;;;;7.78;1.10;;;4.40;99.90;;;;;;4933563;28;20094;-66
2022/01/05 07:44:29;;;;;;;10.90;1.70;;;4.40;99.90;;;;;;4961094;28;20133;-66
2022/01/05 07:46:55;;;;;;;8.68;1.23;;;4.40;99.90;;;;;;4942696;28;20497;-66
2022/01/05 07:49:21;;;;;;;7.13;1.23;;;4.40;99.90;;;;;;4956515;28;20521;-67
2022/01/05 07:51:46;;;;;;;10.25;1.55;;;4.40;99.90;;;;;;4927522;29;20067;-67
2022/01/05 07:54:12;;;;;;;11.20;1.77;;;4.40;99.90;;;;;;4930017;29;20047;-66
2022/01/05 07:56:38;;;;;;;8.70;2.65;;;4.40;99.90;;;;;;4916219;29;20126;-66
2022/01/05 07:59:04;;;;;;;8.18;1.50;;;4.40;99.90;;;;;;4948705;28;20050;-66
2022/01/05 08:01:30;;;;;;;5.40;0.95;;;4.40;99.90;;;;;;4954028;28;20509;-66
2022/01/05 08:03:56;;;;;;;6.65;1.20;;;4.30;99.90;;;;;;4949293;28;20039;-66
2022/01/05 08:06:23;;;;;;;15.98;2.10;;;4.30;99.90;;;;;;4944364;28;20510;-66
2022/01/05 08:08:49;;;;;;;2.92;1.13;;;4.30;99.90;;;;;;4949884;28;20407;-67
2022/01/05 08:11:16;;;;;;;19.38;1.85;;;4.30;99.90;;;;;;4954223;28;20047;-66
2022/01/05 08:13:42;;;;;;;11.25;1.00;;;4.30;99.90;;;;;;4947826;28;20063;-66
2022/01/05 08:16:08;;;;;;;7.03;0.63;;;4.40;99.90;;;;;;4956207;28;20446;-66
2022/01/05 08:18:34;;;;;;;15.90;1.25;;;4.50;99.90;;;;;;4948681;28;20047;-66
2022/01/05 08:21:00;;;;;;;8.30;1.33;;;4.50;99.90;;;;;;4949458;28;20102;-66
2022/01/05 08:23:26;;;;;;;8.20;1.30;;;4.60;99.90;;;;;;4933352;29;20051;-66
2022/01/05 08:25:53;;;;;;;16.48;1.98;;;4.60;99.90;;;;;;4931091;29;20062;-66
2022/01/05 08:28:19;;;;;;;9.52;1.30;;;4.60;99.90;;;;;;4949458;28;20101;-66
2022/01/05 08:30:46;;;;;;;9.45;0.75;;;4.70;99.90;;;;;;4947349;28;20522;-67
2022/01/05 08:33:16;;;;;;;18.80;2.13;;;4.70;99.90;;;;;;4947907;28;20126;-66
2022/01/05 08:35:43;;;;;;;13.35;1.88;;;4.80;99.90;;;;;;4949607;28;20087;-66
2022/01/05 08:38:13;;;;;;;12.32;1.90;;;4.80;99.90;;;;;;4949441;28;20126;-66
2022/01/05 08:40:39;;;;;;;18.33;1.83;;;4.80;99.90;;;;;;4942636;29;20066;-66
2022/01/05 08:43:06;;;;;;;7.43;0.60;;;4.80;99.90;;;;;;4946565;28;20043;-67
2022/01/05 08:45:33;;;;;;;11.32;1.42;;;4.80;99.90;;;;;;4933378;29;20106;-67
2022/01/05 08:47:59;;;;;;;2.63;0.52;;;4.80;99.90;;;;;;4948644;29;20126;-67
2022/01/05 08:50:27;;;;;;;7.90;1.95;;;4.90;99.90;;;;;;4949495;29;20471;-68
2022/01/05 08:52:54;;;;;;;9.65;0.98;;;5.00;99.90;;;;;;4947487;29;20086;-67
2022/01/05 08:55:22;;;;;;;13.43;3.03;;;5.10;99.90;;;;;;4928070;29;20047;-67
2022/01/05 08:57:50;;;;;;;20.92;3.10;;;5.20;99.80;;;;;;4945742;29;20078;-67
2022/01/05 09:00:17;;;;;;;18.73;3.28;;;5.10;99.90;;;;;;4947747;28;20462;-67
2022/01/05 09:02:43;;;;;;;13.07;2.60;;;5.10;99.90;;;;;;4948251;29;20043;-67
2022/01/05 09:05:09;;;;;;;11.32;2.83;;;5.10;99.90;;;;;;4915319;29;20048;-67
2022/01/05 09:07:36;;;;;;;20.48;6.13;;;5.10;99.90;;;;;;4949081;28;20085;-67
2022/01/05 09:10:04;;;;;;;29.38;7.70;;;5.20;99.90;;;;;;4948698;29;20047;-67
2022/01/05 09:12:30;;;;;;;28.20;6.38;;;5.20;99.90;;;;;;4947711;29;20047;-67
2022/01/05 09:14:56;;;;;;;41.42;23.25;;;5.20;99.90;;;;;;4949026;29;20410;-67
2022/01/05 09:17:22;;;;;;;37.28;12.50;;;5.20;99.90;;;;;;4930817;29;20593;-67
2022/01/05 09:19:47;;;;;;;35.78;10.73;;;5.20;99.90;;;;;;4948051;29;20118;-66
2022/01/05 09:22:13;;;;;;;36.05;9.07;;;5.30;99.90;;;;;;4947175;28;20109;-67
2022/01/05 09:24:40;;;;;;;27.65;5.95;;;5.40;99.90;;;;;;4931786;29;20661;-67
2022/01/05 09:27:07;;;;;;;31.80;6.97;;;5.50;99.40;;;;;;4946101;29;20126;-67
2022/01/05 09:29:35;;;;;;;31.70;6.35;;;5.50;99.40;;;;;;4933041;29;20047;-67
2022/01/05 09:32:08;;;;;;;37.00;10.60;;;5.50;99.40;;;;;;4948945;29;20047;-67
2022/01/05 09:34:35;;;;;;;46.15;6.57;;;5.50;99.50;;;;;;4946253;29;20516;-66
2022/01/05 09:37:07;;;;;;;39.60;6.88;;;5.50;99.80;;;;;;4949104;29;20054;-67
2022/01/05 09:42:17;;;;;;;34.75;9.75;;;5.60;99.60;;;;;;4947988;29;20052;-67
2022/01/05 09:44:45;;;;;;;46.42;14.35;;;5.70;99.20;;;;;;4962762;28;20077;-66
2022/01/05 09:47:11;;;;;;;43.35;9.95;;;5.70;99.30;;;;;;4944221;29;20082;-67
2022/01/05 09:49:39;;;;;;;45.25;12.38;;;5.90;99.10;;;;;;4948846;29;20081;-66
2022/01/05 09:52:11;;;;;;;39.20;8.80;;;5.90;98.80;;;;;;4941495;29;20047;-66
2022/01/05 09:54:42;;;;;;;43.92;9.40;;;6.00;98.70;;;;;;4930171;29;20505;-67
2022/01/05 09:57:14;;;;;;;35.75;6.22;;;6.00;98.80;;;;;;4943977;29;20362;-66
2022/01/05 09:59:41;;;;;;;39.22;6.18;;;6.10;98.40;;;;;;4946826;29;20039;-67
2022/01/05 10:02:07;;;;;;;46.03;7.05;;;6.20;98.20;;;;;;4953603;28;20533;-67
2022/01/05 10:04:35;;;;;;;39.10;7.18;;;6.40;98.10;;;;;;4947335;28;20035;-67
2022/01/05 10:07:01;;;;;;;46.65;7.72;;;6.50;97.20;;;;;;4948272;29;20542;-67
2022/01/05 10:09:26;;;;;;;32.58;6.00;;;6.60;96.90;;;;;;4930210;29;20135;-67
2022/01/05 10:11:52;;;;;;;34.22;5.82;;;6.70;95.80;;;;;;4955679;28;20083;-67
2022/01/05 10:14:18;;;;;;;44.90;7.97;;;6.80;95.70;;;;;;4942750;28;20047;-66
2022/01/05 10:17:07;;;;;;;31.55;5.63;;;6.80;95.10;;;;;;4947968;29;20060;-67
2022/01/05 10:19:35;;;;;;;34.80;7.10;;;6.70;94.20;;;;;;4948548;29;20122;-67
2022/01/05 10:22:01;;;;;;;20.60;5.13;;;6.80;93.80;;;;;;4926017;29;20126;-67
2022/01/05 10:24:47;;;;;;;24.40;5.32;;;6.80;92.70;;;;;;4886855;28;30456;-66
2022/01/05 10:27:23;;;;;;;27.90;5.32;;;6.90;92.40;;;;;;4942464;29;20040;-67
2022/01/05 10:29:55;;;;;;;23.85;5.53;;;7.00;92.50;;;;;;4930379;29;20062;-67
2022/01/05 10:32:21;;;;;;;35.72;6.43;;;7.10;92.00;;;;;;4930492;29;20506;-67
2022/01/05 10:35:16;;;;;;;30.98;6.00;;;7.10;92.10;;;;;;4929479;29;20043;-66
2022/01/05 10:37:44;;;;;;;32.08;5.70;;;7.00;91.20;;;;;;4940254;29;20055;-66
2022/01/05 10:40:10;;;;;;;31.80;6.97;;;7.00;91.80;;;;;;4928423;29;20047;-66
2022/01/05 10:42:37;;;;;;;26.55;5.03;;;7.00;91.50;;;;;;4933917;29;20055;-67
2022/01/05 10:45:05;;;;;;;25.30;5.72;;;7.10;90.70;;;;;;4941597;29;20082;-66
2022/01/05 10:47:33;;;;;;;25.73;5.93;;;7.20;90.50;;;;;;4929807;29;20508;-67
2022/01/05 10:49:59;;;;;;;37.47;7.50;;;7.20;90.40;;;;;;4947651;29;20109;-67
2022/01/05 10:52:32;;;;;;;37.88;7.57;;;7.20;90.30;;;;;;4936753;29;20506;-67
2022/01/05 10:55:14;;;;;;;28.35;6.10;;;7.20;90.20;;;;;;4947129;29;20047;-67
2022/01/05 10:58:04;;;;;;;31.17;5.55;;;7.30;90.10;;;;;;4946242;29;20047;-67
2022/01/05 11:00:56;;;;;;;32.42;6.53;;;7.40;90.60;;;;;;4946934;29;20049;-66
2022/01/05 11:03:33;;;;;;;36.22;6.63;;;7.40;90.70;;;;;;4944113;28;20055;-67
2022/01/05 11:06:13;;;;;;;36.65;5.70;;;7.30;90.90;;;;;;4928383;29;20043;-67
2022/01/05 11:09:05;;;;;;;34.92;7.07;;;7.20;91.40;;;;;;4913831;29;20051;-67
2022/01/05 11:11:41;;;;;;;37.83;7.60;;;7.10;91.70;;;;;;4935654;29;20067;-66
2022/01/05 11:14:28;;;;;;;35.97;7.15;;;7.20;92.40;;;;;;4943527;29;20047;-67
2022/01/05 11:16:54;;;;;;;49.85;8.82;;;7.30;91.60;;;;;;4946462;29;20454;-67
2022/01/05 11:19:22;;;;;;;37.63;7.35;;;7.30;92.10;;;;;;4944779;28;20558;-67
2022/01/05 11:22:00;;;;;;;39.22;6.60;;;7.30;92.10;;;;;;4938059;29;20062;-66
2022/01/05 11:24:27;;;;;;;57.88;9.90;;;7.30;92.60;;;;;;4941270;29;20055;-67
2022/01/05 11:26:53;;;;;;;52.15;8.38;;;7.30;92.50;;;;;;4942374;28;20043;-66
2022/01/05 11:29:19;;;;;;;45.20;8.80;;;7.30;92.70;;;;;;4947631;29;20126;-67
2022/01/05 11:31:45;;;;;;;53.60;10.10;;;7.20;93.10;;;;;;4930455;29;20130;-67
2022/01/05 11:34:12;;;;;;;49.33;8.45;;;7.30;92.60;;;;;;4949698;28;20185;-66
2022/01/05 11:36:42;;;;;;;36.50;7.70;;;7.30;92.40;;;;;;4926768;29;20047;-67
2022/01/05 11:39:09;;;;;;;36.50;8.20;;;7.40;91.70;;;;;;4947433;29;20086;-67
2022/01/05 11:41:40;;;;;;;39.53;9.38;;;7.50;91.70;;;;;;4933060;29;20502;-66
2022/01/05 11:44:07;;;;;;;36.53;7.25;;;7.60;91.60;;;;;;4949089;29;20051;-67
2022/01/05 11:46:32;;;;;;;36.65;8.27;;;7.60;90.90;;;;;;4933196;29;20449;-67
2022/01/05 11:49:03;;;;;;;38.92;8.02;;;7.60;89.90;;;;;;4931334;29;20050;-67
2022/01/05 11:51:30;;;;;;;33.42;6.80;;;7.60;90.00;;;;;;4917583;29;20451;-66
2022/01/05 11:54:19;;;;;;;38.67;6.43;;;7.70;90.10;;;;;;4947832;28;20078;-66
2022/01/05 11:56:52;;;;;;;33.47;6.63;;;7.70;90.20;;;;;;4961535;28;20041;-67
2022/01/05 11:59:22;;;;;;;30.25;7.13;;;7.80;89.40;;;;;;4941426;29;20504;-67
2022/01/05 12:02:20;;;;;;;39.70;7.85;;;8.00;88.90;;;;;;4948077;29;20102;-67
2022/01/05 12:05:04;;;;;;;34.20;7.78;;;8.00;90.00;;;;;;4938536;29;20055;-67
2022/01/05 12:07:51;;;;;;;40.85;7.63;;;7.80;89.60;;;;;;4939876;29;20043;-67
2022/01/05 12:10:23;;;;;;;37.25;7.68;;;7.60;90.20;;;;;;4944046;29;20055;-67
2022/01/05 12:12:57;;;;;;;37.40;10.35;;;7.60;90.70;;;;;;4979815;28;20039;-66
2022/01/05 12:15:44;;;;;;;41.00;9.27;;;7.60;90.70;;;;;;4915585;29;20051;-67
2022/01/05 12:18:19;;;;;;;41.90;11.32;;;7.70;90.80;;;;;;4947549;28;20398;-66
2022/01/05 12:20:45;;;;;;;41.83;8.85;;;7.80;89.70;;;;;;4950827;29;20044;-67
2022/01/05 12:23:22;;;;;;;31.98;7.00;;;7.90;90.10;;;;;;4915009;29;20051;-67
2022/01/05 12:26:07;;;;;;;30.45;7.50;;;7.90;89.50;;;;;;4947136;29;20109;-67
2022/01/05 12:28:49;;;;;;;39.90;7.68;;;7.90;87.90;;;;;;4931392;29;20564;-66
2022/01/05 12:31:15;;;;;;;33.08;6.95;;;7.90;89.40;;;;;;4948420;29;20509;-66
2022/01/05 12:33:49;;;;;;;32.20;6.75;;;7.90;88.70;;;;;;4936338;29;20050;-67
2022/01/05 12:36:38;;;;;;;32.85;7.13;;;7.90;89.20;;;;;;4946468;29;20101;-67
2022/01/05 12:39:08;;;;;;;36.28;7.35;;;7.80;90.60;;;;;;4949599;28;20130;-67
2022/01/05 12:41:36;;;;;;;;;;;7.90;90.80;;;;;;4946318;28;20624;-67
2022/01/05 12:44:26;;;;;;;33.65;6.03;;;7.90;91.30;;;;;;4945504;28;20423;-66
2022/01/05 12:46:53;;;;;;;39.08;8.70;;;7.90;92.00;;;;;;4945445;29;20067;-67
2022/01/05 12:49:22;;;;;;;37.65;6.78;;;7.90;91.20;;;;;;4946193;28;20589;-66
2022/01/05 12:51:48;;;;;;;39.72;8.88;;;7.90;90.70;;;;;;4931520;29;20138;-66
2022/01/05 12:54:22;;;;;;;40.60;10.70;;;7.90;90.90;;;;;;4946275;29;20130;-67
2022/01/05 12:57:01;;;;;;;38.38;9.45;;;7.90;90.50;;;;;;4916488;29;20398;-66